createdAt,value
2018-12-18T00:00:45.600Z,28.00
2018-12-18T00:01:45.624Z,27.98
2018-12-18T00:02:45.737Z,28.01
2018-12-18T00:03:45.646Z,28.00
2018-12-18T00:04:45.670Z,27.94
2018-12-18T00:05:45.701Z,27.91
2018-12-18T00:06:45.719Z,28.01
2018-12-18T00:07:45.883Z,27.91
2018-12-18T00:08:45.736Z,27.97
2018-12-18T00:09:45.764Z,27.93
2018-12-18T00:10:45.905Z,27.88
2018-12-18T00:11:45.839Z,27.82
2018-12-18T00:12:45.877Z,27.86
2018-12-18T00:13:45.845Z,27.79
2018-12-18T00:14:45.875Z,27.75
2018-12-18T00:15:45.892Z,27.81
2018-12-18T00:16:45.903Z,27.83
2018-12-18T00:17:46.013Z,27.81
2018-12-18T00:18:45.948Z,27.90
2018-12-18T00:19:45.966Z,27.82
2018-12-18T00:20:45.965Z,27.97
2018-12-18T00:21:45.996Z,27.90
2018-12-18T00:22:46.107Z,27.83
2018-12-18T00:23:46.045Z,27.79
2018-12-18T00:24:46.174Z,27.81
2018-12-18T00:25:46.081Z,27.90
2018-12-18T00:26:46.118Z,27.79
2018-12-18T00:27:46.214Z,27.90
2018-12-18T00:28:46.135Z,27.90
2018-12-18T00:29:46.136Z,27.86
2018-12-18T00:30:46.178Z,27.81
2018-12-18T00:31:46.304Z,27.86
2018-12-18T00:32:46.472Z,27.85
2018-12-18T00:33:46.278Z,27.82
2018-12-18T00:34:46.255Z,27.72
2018-12-18T00:35:46.271Z,27.73
2018-12-18T00:36:46.326Z,27.76
2018-12-18T00:37:46.343Z,27.66
2018-12-18T00:38:46.303Z,27.76
2018-12-18T00:39:46.327Z,27.68
2018-12-18T00:40:46.355Z,27.63
2018-12-18T00:41:46.369Z,27.67
2018-12-18T00:42:46.435Z,27.61
2018-12-18T00:43:46.411Z,27.53
2018-12-18T00:44:46.425Z,27.64
2018-12-18T00:45:46.450Z,27.66
2018-12-18T00:46:46.470Z,27.66
2018-12-18T00:47:46.604Z,27.66
2018-12-18T00:48:46.510Z,27.67
2018-12-18T00:49:46.531Z,27.67
2018-12-18T00:50:46.544Z,27.76
2018-12-18T00:51:46.569Z,27.71
2018-12-18T00:52:46.685Z,27.68
2018-12-18T00:53:46.602Z,27.76
2018-12-18T00:54:46.621Z,27.76
2018-12-18T00:55:46.630Z,27.82
2018-12-18T00:56:46.773Z,27.83
2018-12-18T00:57:46.811Z,27.91
2018-12-18T00:58:46.817Z,27.94
2018-12-18T00:59:46.700Z,28.00
2018-12-18T01:00:46.848Z,28.03
2018-12-18T01:01:46.750Z,27.98
2018-12-18T01:02:46.907Z,28.04
2018-12-18T01:03:52.630Z,28.03
2018-12-18T01:04:46.844Z,28.04
2018-12-18T01:05:46.813Z,28.08
2018-12-18T01:06:46.841Z,28.04
2018-12-18T01:07:53.161Z,28.06
2018-12-18T01:08:47.000Z,28.09
2018-12-18T01:09:46.887Z,28.00
2018-12-18T01:10:47.036Z,27.97
2018-12-18T01:11:46.926Z,27.98
2018-12-18T01:12:47.062Z,27.98
2018-12-18T01:13:46.972Z,27.97
2018-12-18T01:14:47.032Z,27.98
2018-12-18T01:15:47.002Z,28.01
2018-12-18T01:16:47.151Z,28.04
2018-12-18T01:17:47.319Z,27.90
2018-12-18T01:18:47.064Z,27.95
2018-12-18T01:19:47.084Z,27.88
2018-12-18T01:20:47.235Z,27.83
2018-12-18T01:21:47.245Z,27.81
2018-12-18T01:22:47.363Z,27.78
2018-12-18T01:23:47.162Z,27.72
2018-12-18T01:24:47.184Z,27.64
2018-12-18T01:25:47.200Z,27.66
2018-12-18T01:26:47.205Z,27.64
2018-12-18T01:27:47.407Z,27.50
2018-12-18T01:28:47.246Z,27.43
2018-12-18T01:29:47.293Z,27.45
2018-12-18T01:30:47.304Z,27.41
2018-12-18T01:31:47.431Z,27.45
2018-12-18T01:32:47.489Z,27.35
2018-12-18T01:33:47.362Z,27.35
2018-12-18T01:34:47.366Z,27.35
2018-12-18T01:35:47.388Z,27.30
2018-12-18T01:36:47.411Z,27.34
2018-12-18T01:37:47.595Z,27.30
2018-12-18T01:38:47.438Z,27.28
2018-12-18T01:39:47.465Z,27.29
2018-12-18T01:40:47.496Z,27.34
2018-12-18T01:41:47.504Z,27.29
2018-12-18T01:42:47.670Z,27.35
2018-12-18T01:43:47.539Z,27.28
2018-12-18T01:44:47.674Z,27.28
2018-12-18T01:45:47.562Z,27.29
2018-12-18T01:46:47.580Z,27.28
2018-12-18T01:47:47.767Z,27.25
2018-12-18T01:48:47.668Z,27.29
2018-12-18T01:49:47.647Z,27.20
2018-12-18T01:50:47.685Z,27.20
2018-12-18T01:51:47.705Z,27.26
2018-12-18T01:52:47.698Z,27.20
2018-12-18T01:53:47.811Z,27.28
2018-12-18T01:54:47.859Z,27.23
2018-12-18T01:55:47.779Z,27.26
2018-12-18T01:56:47.768Z,27.26
2018-12-18T01:57:47.794Z,27.10
2018-12-18T01:58:48.035Z,27.29
2018-12-18T01:59:47.838Z,27.15
2018-12-18T02:00:47.850Z,27.22
2018-12-18T02:01:47.876Z,27.30
2018-12-18T02:02:48.006Z,27.26
2018-12-18T02:03:48.017Z,27.25
2018-12-18T02:04:48.047Z,27.23
2018-12-18T02:05:47.968Z,27.33
2018-12-18T02:06:47.957Z,27.23
2018-12-18T02:07:47.970Z,27.11
2018-12-18T02:08:48.059Z,27.20
2018-12-18T02:09:48.012Z,27.16
2018-12-18T02:10:48.040Z,27.18
2018-12-18T02:11:48.069Z,27.20
2018-12-18T02:12:48.068Z,27.13
2018-12-18T02:13:48.186Z,27.13
2018-12-18T02:14:48.126Z,27.19
2018-12-18T02:15:48.125Z,27.07
2018-12-18T02:16:48.156Z,27.15
2018-12-18T02:17:48.165Z,27.22
2018-12-18T02:18:48.294Z,27.29
2018-12-18T02:19:48.193Z,27.19
2018-12-18T02:20:48.222Z,27.22
2018-12-18T02:21:48.244Z,27.20
2018-12-18T02:22:48.267Z,27.33
2018-12-18T02:23:48.382Z,27.37
2018-12-18T02:24:48.302Z,27.37
2018-12-18T02:25:48.321Z,27.30
2018-12-18T02:26:48.332Z,27.29
2018-12-18T02:27:48.361Z,27.25
2018-12-18T02:28:48.533Z,27.23
2018-12-18T02:29:48.425Z,27.18
2018-12-18T02:30:48.406Z,27.28
2018-12-18T02:31:48.418Z,27.35
2018-12-18T02:32:48.443Z,27.20
2018-12-18T02:33:48.563Z,27.34
2018-12-18T02:34:48.471Z,27.26
2018-12-18T02:35:48.500Z,27.11
2018-12-18T02:36:48.520Z,27.10
2018-12-18T02:37:48.662Z,26.93
2018-12-18T02:38:48.662Z,26.93
2018-12-18T02:39:48.582Z,26.92
2018-12-18T02:40:48.613Z,26.92
2018-12-18T02:41:48.618Z,26.88
2018-12-18T02:42:48.646Z,26.81
2018-12-18T02:43:48.759Z,26.76
2018-12-18T02:44:48.665Z,26.67
2018-12-18T02:45:48.699Z,26.71
2018-12-18T02:46:48.749Z,26.59
2018-12-18T02:47:48.714Z,26.64
2018-12-18T02:48:48.848Z,26.63
2018-12-18T02:49:48.751Z,26.67
2018-12-18T02:50:48.791Z,26.64
2018-12-18T02:51:48.906Z,26.70
2018-12-18T02:52:48.827Z,26.74
2018-12-18T02:53:48.938Z,26.70
2018-12-18T02:54:48.867Z,26.70
2018-12-18T02:55:48.864Z,26.73
2018-12-18T02:56:48.884Z,26.79
2018-12-18T02:57:49.027Z,26.76
2018-12-18T02:58:49.078Z,26.85
2018-12-18T02:59:48.941Z,26.83
2018-12-18T03:00:48.965Z,26.76
2018-12-18T03:01:48.973Z,26.82
2018-12-18T03:02:48.992Z,26.89
2018-12-18T03:03:49.187Z,26.76
2018-12-18T03:04:49.153Z,26.82
2018-12-18T03:05:49.051Z,26.78
2018-12-18T03:06:49.189Z,26.86
2018-12-18T03:07:49.099Z,26.83
2018-12-18T03:08:49.329Z,26.82
2018-12-18T03:09:49.150Z,26.82
2018-12-18T03:10:49.171Z,26.83
2018-12-18T03:11:49.282Z,26.82
2018-12-18T03:12:49.168Z,26.88
2018-12-18T03:13:49.348Z,26.82
2018-12-18T03:14:49.212Z,26.81
2018-12-18T03:15:49.285Z,26.88
2018-12-18T03:16:49.270Z,26.89
2018-12-18T03:17:49.316Z,26.86
2018-12-18T03:18:49.412Z,26.92
2018-12-18T03:19:49.431Z,26.92
2018-12-18T03:20:49.324Z,26.97
2018-12-18T03:21:49.350Z,26.92
2018-12-18T03:22:49.366Z,26.91
2018-12-18T03:23:49.487Z,26.93
2018-12-18T03:24:49.427Z,26.93
2018-12-18T03:25:49.415Z,26.91
2018-12-18T03:26:49.429Z,26.91
2018-12-18T03:27:49.458Z,26.97
2018-12-18T03:28:49.617Z,26.96
2018-12-18T03:29:49.485Z,26.91
2018-12-18T03:30:49.507Z,26.91
2018-12-18T03:31:49.532Z,26.88
2018-12-18T03:32:49.570Z,26.96
2018-12-18T03:33:49.632Z,27.01
2018-12-18T03:34:49.599Z,26.92
2018-12-18T03:35:49.606Z,26.93
2018-12-18T03:36:49.618Z,26.91
2018-12-18T03:37:49.639Z,26.91
2018-12-18T03:38:49.761Z,27.01
2018-12-18T03:39:49.687Z,26.97
2018-12-18T03:40:49.697Z,26.88
2018-12-18T03:41:49.706Z,27.01
2018-12-18T03:42:49.730Z,27.03
2018-12-18T03:43:49.904Z,27.08
2018-12-18T03:44:49.766Z,27.03
2018-12-18T03:45:49.787Z,26.97
2018-12-18T03:46:49.815Z,26.98
2018-12-18T03:47:49.824Z,26.97
2018-12-18T03:48:50.064Z,27.04
2018-12-18T03:49:49.850Z,26.98
2018-12-18T03:50:49.893Z,26.93
2018-12-18T03:51:49.901Z,26.89
2018-12-18T03:52:49.961Z,26.92
2018-12-18T03:53:50.092Z,26.91
2018-12-18T03:54:50.075Z,26.97
2018-12-18T03:55:49.973Z,26.91
2018-12-18T03:56:49.993Z,26.89
2018-12-18T03:57:50.131Z,26.93
2018-12-18T03:58:50.138Z,26.92
2018-12-18T03:59:50.166Z,26.92
2018-12-18T04:00:50.075Z,26.85
2018-12-18T04:01:50.073Z,26.88
2018-12-18T04:02:50.087Z,26.97
2018-12-18T04:03:50.173Z,26.88
2018-12-18T04:04:50.143Z,26.93
2018-12-18T04:05:50.154Z,26.92
2018-12-18T04:06:50.179Z,26.92
2018-12-18T04:07:50.242Z,26.91
2018-12-18T04:08:50.358Z,26.92
2018-12-18T04:09:50.249Z,26.96
2018-12-18T04:10:50.292Z,26.88
2018-12-18T04:11:50.273Z,26.93
2018-12-18T04:12:50.291Z,26.92
2018-12-18T04:13:50.529Z,26.92
2018-12-18T04:14:50.369Z,26.91
2018-12-18T04:15:50.370Z,26.89
2018-12-18T04:16:50.365Z,26.91
2018-12-18T04:17:50.376Z,26.93
2018-12-18T04:18:50.493Z,26.92
2018-12-18T04:19:50.416Z,26.97
2018-12-18T04:20:50.422Z,26.93
2018-12-18T04:21:50.458Z,26.93
2018-12-18T04:22:50.467Z,26.93
2018-12-18T04:23:50.661Z,26.92
2018-12-18T04:24:50.495Z,26.97
2018-12-18T04:25:50.530Z,26.89
2018-12-18T04:26:50.555Z,26.92
2018-12-18T04:27:50.553Z,26.92
2018-12-18T04:28:50.689Z,26.89
2018-12-18T04:29:50.596Z,26.92
2018-12-18T04:30:50.624Z,26.98
2018-12-18T04:31:50.651Z,26.91
2018-12-18T04:32:50.662Z,26.92
2018-12-18T04:33:50.824Z,26.93
2018-12-18T04:34:50.684Z,26.91
2018-12-18T04:35:50.698Z,26.92
2018-12-18T04:36:50.961Z,26.97
2018-12-18T04:37:50.740Z,26.93
2018-12-18T04:38:50.803Z,26.89
2018-12-18T04:39:50.899Z,26.89
2018-12-18T04:40:50.845Z,26.86
2018-12-18T04:41:50.842Z,26.88
2018-12-18T04:42:50.843Z,26.78
2018-12-18T04:43:50.953Z,26.78
2018-12-18T04:44:50.882Z,26.85
2018-12-18T04:45:51.011Z,26.82
2018-12-18T04:46:51.029Z,26.76
2018-12-18T04:47:50.919Z,26.74
2018-12-18T04:48:51.065Z,26.78
2018-12-18T04:49:51.086Z,26.81
2018-12-18T04:50:50.985Z,26.81
2018-12-18T04:51:50.988Z,26.81
2018-12-18T04:52:51.073Z,26.78
2018-12-18T04:53:51.134Z,26.78
2018-12-18T04:54:51.051Z,26.81
2018-12-18T04:55:51.070Z,26.85
2018-12-18T04:56:51.090Z,26.78
2018-12-18T04:57:51.125Z,26.85
2018-12-18T04:58:51.237Z,26.82
2018-12-18T04:59:51.144Z,26.82
2018-12-18T05:00:51.175Z,26.83
2018-12-18T05:01:51.178Z,26.81
2018-12-18T05:02:51.218Z,26.79
2018-12-18T05:03:51.390Z,26.81
2018-12-18T05:04:51.252Z,26.79
2018-12-18T05:05:51.272Z,26.81
2018-12-18T05:06:51.280Z,26.81
2018-12-18T05:07:51.294Z,26.86
2018-12-18T05:08:51.620Z,26.83
2018-12-18T05:09:51.372Z,26.82
2018-12-18T05:10:51.368Z,26.79
2018-12-18T05:11:51.371Z,26.78
2018-12-18T05:12:51.372Z,26.82
2018-12-18T05:13:51.506Z,26.83
2018-12-18T05:14:51.424Z,26.79
2018-12-18T05:15:51.436Z,26.78
2018-12-18T05:16:51.448Z,26.83
2018-12-18T05:17:51.597Z,26.85
2018-12-18T05:18:51.550Z,26.82
2018-12-18T05:19:51.526Z,26.79
2018-12-18T05:20:51.575Z,26.83
2018-12-18T05:21:51.671Z,26.74
2018-12-18T05:22:51.578Z,26.81
2018-12-18T05:23:51.706Z,26.82
2018-12-18T05:24:51.594Z,26.76
2018-12-18T05:25:51.626Z,26.83
2018-12-18T05:26:51.639Z,26.78
2018-12-18T05:27:51.650Z,26.73
2018-12-18T05:28:51.795Z,26.78
2018-12-18T05:29:51.697Z,26.73
2018-12-18T05:30:51.728Z,26.82
2018-12-18T05:31:51.754Z,26.68
2018-12-18T05:32:51.808Z,26.78
2018-12-18T05:33:51.884Z,26.74
2018-12-18T05:34:56.515Z,26.82
2018-12-18T05:35:51.927Z,26.81
2018-12-18T05:36:51.944Z,26.70
2018-12-18T05:37:51.839Z,26.76
2018-12-18T05:38:51.930Z,26.81
2018-12-18T05:39:51.870Z,26.73
2018-12-18T05:40:51.894Z,26.82
2018-12-18T05:41:51.914Z,26.67
2018-12-18T05:42:51.943Z,26.76
2018-12-18T05:43:52.068Z,26.76
2018-12-18T05:44:51.980Z,26.78
2018-12-18T05:45:51.990Z,26.82
2018-12-18T05:46:52.022Z,26.83
2018-12-18T05:47:52.031Z,26.78
2018-12-18T05:48:52.141Z,26.76
2018-12-18T05:49:52.098Z,26.63
2018-12-18T05:50:52.094Z,26.67
2018-12-18T05:51:52.219Z,26.67
2018-12-18T05:52:52.126Z,26.68
2018-12-18T05:53:52.234Z,26.66
2018-12-18T05:54:52.148Z,26.59
2018-12-18T05:55:52.178Z,26.60
2018-12-18T05:56:52.309Z,26.52
2018-12-18T05:57:52.198Z,26.60
2018-12-18T05:58:52.316Z,26.49
2018-12-18T05:59:52.364Z,26.46
2018-12-18T06:00:52.383Z,26.55
2018-12-18T06:01:52.277Z,26.48
2018-12-18T06:02:52.416Z,26.34
2018-12-18T06:03:52.453Z,26.39
2018-12-18T06:04:52.346Z,26.34
2018-12-18T06:05:52.469Z,26.29
2018-12-18T06:06:52.373Z,26.34
2018-12-18T06:07:52.389Z,26.37
2018-12-18T06:08:52.559Z,26.30
2018-12-18T06:09:52.442Z,26.26
2018-12-18T06:10:52.447Z,26.23
2018-12-18T06:11:52.448Z,26.27
2018-12-18T06:12:52.653Z,26.16
2018-12-18T06:13:52.694Z,26.03
2018-12-18T06:14:52.500Z,26.01
2018-12-18T06:15:52.536Z,25.91
2018-12-18T06:16:52.553Z,25.81
2018-12-18T06:17:52.561Z,25.70
2018-12-18T06:18:52.681Z,25.63
2018-12-18T06:19:52.590Z,25.43
2018-12-18T06:20:52.611Z,25.39
2018-12-18T06:21:52.634Z,25.31
2018-12-18T06:22:52.653Z,25.18
2018-12-18T06:23:52.947Z,24.96
2018-12-18T06:24:52.715Z,24.62
2018-12-18T06:25:52.697Z,24.25
2018-12-18T06:26:52.721Z,24.06
2018-12-18T06:27:52.755Z,23.79
2018-12-18T06:28:53.034Z,23.66
2018-12-18T06:29:52.901Z,23.67
2018-12-18T06:30:52.782Z,23.47
2018-12-18T06:31:52.933Z,23.33
2018-12-18T06:32:52.843Z,23.23
2018-12-18T06:33:52.960Z,23.10
2018-12-18T06:34:52.902Z,22.96
2018-12-18T06:35:53.005Z,22.88
2018-12-18T06:36:52.906Z,22.80
2018-12-18T06:37:52.907Z,22.77
2018-12-18T06:38:53.047Z,22.65
2018-12-18T06:39:52.948Z,22.61
2018-12-18T06:40:52.959Z,22.53
2018-12-18T06:41:52.978Z,22.55
2018-12-18T06:42:53.337Z,22.47
2018-12-18T06:43:53.123Z,22.43
2018-12-18T06:44:53.029Z,22.40
2018-12-18T06:45:53.047Z,22.46
2018-12-18T06:46:53.074Z,22.41
2018-12-18T06:47:53.073Z,22.51
2018-12-18T06:48:53.141Z,22.47
2018-12-18T06:49:53.154Z,22.49
2018-12-18T06:50:53.125Z,22.53
2018-12-18T06:51:53.275Z,22.49
2018-12-18T06:52:53.177Z,22.56
2018-12-18T06:53:53.353Z,22.46
2018-12-18T06:54:53.192Z,22.55
2018-12-18T06:55:53.212Z,22.51
2018-12-18T06:56:53.241Z,22.52
2018-12-18T06:57:53.258Z,22.52
2018-12-18T06:58:53.375Z,22.55
2018-12-18T06:59:53.283Z,22.51
2018-12-18T07:00:53.285Z,22.55
2018-12-18T07:01:53.307Z,22.51
2018-12-18T07:02:53.315Z,22.55
2018-12-18T07:03:53.387Z,22.46
2018-12-18T07:04:53.356Z,22.47
2018-12-18T07:05:53.364Z,22.55
2018-12-18T07:06:53.388Z,22.44
2018-12-18T07:07:57.338Z,22.49
2018-12-18T07:08:53.523Z,22.46
2018-12-18T07:09:53.483Z,22.43
2018-12-18T07:10:53.460Z,22.53
2018-12-18T07:11:53.477Z,22.55
2018-12-18T07:12:53.495Z,22.56
2018-12-18T07:13:53.646Z,22.56
2018-12-18T07:14:53.529Z,22.58
2018-12-18T07:15:53.537Z,22.51
2018-12-18T07:16:53.672Z,22.53
2018-12-18T07:17:53.688Z,22.62
2018-12-18T07:18:53.737Z,22.58
2018-12-18T07:19:53.591Z,22.61
2018-12-18T07:20:53.666Z,22.65
2018-12-18T07:21:53.638Z,22.61
2018-12-18T07:22:53.640Z,22.68
2018-12-18T07:23:53.729Z,22.63
2018-12-18T07:24:53.684Z,22.61
2018-12-18T07:25:53.691Z,22.59
2018-12-18T07:26:53.718Z,22.53
2018-12-18T07:27:53.724Z,22.61
2018-12-18T07:28:53.785Z,22.58
2018-12-18T07:29:53.883Z,22.56
2018-12-18T07:30:53.921Z,22.51
2018-12-18T07:31:53.832Z,22.47
2018-12-18T07:32:53.802Z,22.49
2018-12-18T07:33:53.853Z,22.55
2018-12-18T07:34:53.830Z,22.55
2018-12-18T07:35:53.954Z,22.44
2018-12-18T07:36:53.993Z,22.49
2018-12-18T07:37:53.884Z,22.53
2018-12-18T07:38:53.899Z,22.46
2018-12-18T07:39:54.043Z,22.43
2018-12-18T07:40:54.022Z,22.46
2018-12-18T07:41:54.074Z,22.41
2018-12-18T07:42:53.979Z,22.51
2018-12-18T07:43:53.993Z,22.55
2018-12-18T07:44:54.000Z,22.51
2018-12-18T07:45:54.133Z,22.61
2018-12-18T07:46:54.030Z,22.51
2018-12-18T07:47:54.072Z,22.53
2018-12-18T07:48:54.059Z,22.51
2018-12-18T07:49:54.091Z,22.47
2018-12-18T07:50:54.257Z,22.53
2018-12-18T07:51:54.110Z,22.55
2018-12-18T07:52:54.249Z,22.51
2018-12-18T07:53:54.153Z,22.41
2018-12-18T07:54:54.283Z,22.40
2018-12-18T07:56:00.147Z,22.37
2018-12-18T07:56:54.339Z,22.41
2018-12-18T07:57:54.198Z,22.31
2018-12-18T07:58:54.220Z,22.37
2018-12-18T07:59:54.254Z,22.40
2018-12-18T08:00:54.250Z,22.31
2018-12-18T08:01:54.326Z,22.28
2018-12-18T08:02:54.309Z,22.34
2018-12-18T08:03:54.396Z,22.16
2018-12-18T08:04:54.319Z,22.21
2018-12-18T08:05:54.340Z,22.15
2018-12-18T08:06:54.349Z,22.15
2018-12-18T08:07:54.376Z,22.15
2018-12-18T08:08:54.457Z,22.15
2018-12-18T08:09:54.394Z,22.12
2018-12-18T08:10:54.453Z,22.07
2018-12-18T08:11:54.537Z,22.01
2018-12-18T08:12:54.461Z,21.92
2018-12-18T08:14:54.527Z,21.91
2018-12-18T08:15:54.490Z,22.00
2018-12-18T08:16:54.683Z,21.91
2018-12-18T08:17:54.514Z,22.01
2018-12-18T08:18:54.549Z,22.00
2018-12-18T08:19:54.572Z,21.89
2018-12-18T08:20:54.573Z,21.89
2018-12-18T08:21:54.742Z,22.00
2018-12-18T08:22:54.595Z,21.97
2018-12-18T08:23:54.607Z,21.91
2018-12-18T08:24:54.632Z,21.85
2018-12-18T08:25:54.673Z,21.83
2018-12-18T08:26:54.776Z,21.92
2018-12-18T08:27:54.682Z,21.94
2018-12-18T08:28:54.710Z,21.92
2018-12-18T08:29:54.724Z,21.70
2018-12-18T08:30:54.761Z,21.83
2018-12-18T08:31:54.843Z,21.80
2018-12-18T08:32:54.757Z,21.88
2018-12-18T08:33:54.780Z,21.75
2018-12-18T08:34:54.790Z,21.70
2018-12-18T08:35:54.929Z,21.69
2018-12-18T08:36:54.823Z,21.77
2018-12-18T08:37:55.060Z,21.72
2018-12-18T08:38:54.857Z,21.68
2018-12-18T08:39:54.927Z,21.68
2018-12-18T08:40:54.893Z,21.83
2018-12-18T08:41:54.900Z,21.74
2018-12-18T08:42:55.021Z,21.75
2018-12-18T08:43:54.938Z,21.72
2018-12-18T08:44:54.945Z,21.77
2018-12-18T08:45:54.980Z,21.84
2018-12-18T08:46:54.978Z,21.80
2018-12-18T08:47:55.096Z,21.83
2018-12-18T08:48:55.014Z,21.77
2018-12-18T08:49:55.018Z,21.88
2018-12-18T08:50:55.036Z,21.70
2018-12-18T08:51:55.055Z,21.81
2018-12-18T08:52:55.127Z,21.78
2018-12-18T08:53:55.207Z,21.77
2018-12-18T08:54:55.100Z,21.72
2018-12-18T08:55:55.122Z,21.66
2018-12-18T08:56:55.232Z,21.75
2018-12-18T08:57:55.152Z,21.80
2018-12-18T08:58:55.182Z,21.72
2018-12-18T08:59:55.173Z,21.80
2018-12-18T09:00:55.204Z,21.77
2018-12-18T09:01:55.216Z,21.74
2018-12-18T09:02:55.348Z,21.75
2018-12-18T09:03:55.237Z,21.80
2018-12-18T09:04:55.248Z,21.84
2018-12-18T09:05:55.413Z,21.84
2018-12-18T09:06:55.283Z,21.84
2018-12-18T09:07:55.312Z,21.77
2018-12-18T09:08:55.330Z,21.84
2018-12-18T09:09:55.391Z,21.84
2018-12-18T09:10:55.443Z,21.84
2018-12-18T09:11:55.365Z,21.80
2018-12-18T09:12:55.378Z,21.85
2018-12-18T09:13:55.403Z,21.77
2018-12-18T09:14:55.415Z,21.75
2018-12-18T09:15:55.583Z,21.70
2018-12-18T09:16:55.444Z,21.74
2018-12-18T09:17:55.459Z,21.68
2018-12-18T09:18:55.481Z,21.69
2018-12-18T09:19:55.499Z,21.70
2018-12-18T09:20:55.571Z,21.70
2018-12-18T09:21:55.516Z,21.74
2018-12-18T09:22:55.583Z,21.77
2018-12-18T09:23:55.577Z,21.69
2018-12-18T09:24:55.617Z,21.72
2018-12-18T09:25:55.696Z,21.69
2018-12-18T09:26:55.647Z,21.74
2018-12-18T09:27:55.618Z,21.70
2018-12-18T09:28:55.634Z,21.68
2018-12-18T09:29:55.645Z,21.66
2018-12-18T09:30:55.673Z,21.68
2018-12-18T09:31:55.777Z,21.74
2018-12-18T09:32:55.696Z,21.77
2018-12-18T09:33:55.733Z,21.74
2018-12-18T09:34:55.716Z,21.66
2018-12-18T09:35:55.775Z,21.70
2018-12-18T09:36:55.944Z,21.80
2018-12-18T09:37:55.896Z,21.77
2018-12-18T09:38:55.786Z,21.75
2018-12-18T09:39:55.795Z,21.77
2018-12-18T09:40:55.837Z,21.84
2018-12-18T09:41:55.880Z,21.80
2018-12-18T09:42:55.858Z,21.81
2018-12-18T09:43:55.876Z,21.77
2018-12-18T09:44:55.896Z,21.88
2018-12-18T09:45:55.904Z,21.94
2018-12-18T09:46:56.072Z,21.83
2018-12-18T09:47:55.950Z,21.81
2018-12-18T09:48:55.953Z,21.83
2018-12-18T09:49:55.997Z,21.88
2018-12-18T09:50:55.969Z,21.84
2018-12-18T09:51:56.091Z,21.88
2018-12-18T09:52:56.017Z,21.89
2018-12-18T09:53:56.012Z,21.94
2018-12-18T09:54:56.037Z,21.89
2018-12-18T09:55:56.184Z,21.96
2018-12-18T09:56:56.174Z,22.12
2018-12-18T09:57:56.214Z,22.14
2018-12-18T09:58:56.103Z,22.19
2018-12-18T09:59:56.130Z,22.26
2018-12-18T10:00:56.154Z,22.30
2018-12-18T10:01:56.296Z,22.47
2018-12-18T10:02:56.202Z,22.44
2018-12-18T10:03:56.209Z,22.40
2018-12-18T10:04:56.210Z,22.36
2018-12-18T10:05:56.628Z,22.38
2018-12-18T10:06:56.448Z,22.34
2018-12-18T10:07:56.261Z,22.38
2018-12-18T10:08:56.392Z,22.40
2018-12-18T10:09:56.282Z,22.46
2018-12-18T10:10:56.290Z,22.41
2018-12-18T10:11:56.398Z,22.49
2018-12-18T10:12:56.348Z,22.53
2018-12-18T10:13:56.473Z,22.49
2018-12-18T10:14:56.395Z,22.49
2018-12-18T10:15:56.605Z,22.56
2018-12-18T10:16:56.404Z,22.51
2018-12-18T10:17:56.421Z,22.62
2018-12-18T10:18:56.422Z,22.61
2018-12-18T10:19:56.473Z,22.68
2018-12-18T10:20:56.556Z,22.70
2018-12-18T10:21:56.606Z,22.81
2018-12-18T10:22:56.501Z,22.84
2018-12-18T10:23:56.562Z,22.84
2018-12-18T10:24:56.538Z,22.93
2018-12-18T10:25:56.557Z,23.04
2018-12-18T10:26:56.638Z,23.06
2018-12-18T10:27:56.596Z,23.21
2018-12-18T10:28:56.607Z,23.13
2018-12-18T10:29:56.681Z,23.13
2018-12-18T10:30:56.641Z,23.07
2018-12-18T10:31:56.706Z,23.11
2018-12-18T10:32:56.665Z,23.29
2018-12-18T10:33:56.683Z,23.52
2018-12-18T10:34:56.711Z,23.69
2018-12-18T10:36:02.821Z,23.63
2018-12-18T10:36:56.848Z,23.59
2018-12-18T10:37:56.751Z,23.62
2018-12-18T10:38:56.754Z,23.62
2018-12-18T10:39:56.789Z,23.66
2018-12-18T10:40:56.802Z,23.91
2018-12-18T10:41:56.944Z,24.11
2018-12-18T10:42:56.847Z,24.11
2018-12-18T10:43:56.858Z,24.28
2018-12-18T10:44:56.861Z,24.24
2018-12-18T10:45:56.890Z,24.28
2018-12-18T10:46:56.955Z,24.28
2018-12-18T10:47:57.049Z,24.29
2018-12-18T10:48:56.957Z,24.41
2018-12-18T10:49:56.957Z,24.56
2018-12-18T10:50:56.987Z,24.53
2018-12-18T10:51:57.062Z,24.58
2018-12-18T10:52:57.013Z,24.55
2018-12-18T10:53:57.052Z,24.55
2018-12-18T10:54:57.052Z,24.50
2018-12-18T10:55:57.193Z,24.51
2018-12-18T10:56:57.131Z,24.56
2018-12-18T10:57:57.104Z,24.62
2018-12-18T10:58:57.130Z,24.65
2018-12-18T10:59:57.138Z,24.53
2018-12-18T11:00:57.187Z,24.34
2018-12-18T11:01:57.400Z,24.25
2018-12-18T11:02:57.203Z,24.14
2018-12-18T11:03:57.232Z,24.19
2018-12-18T11:04:57.234Z,24.07
2018-12-18T11:05:57.240Z,24.00
2018-12-18T11:06:57.355Z,24.00
2018-12-18T11:07:57.273Z,23.86
2018-12-18T11:08:57.301Z,23.92
2018-12-18T11:09:57.324Z,23.85
2018-12-18T11:10:57.348Z,23.91
2018-12-18T11:11:57.453Z,23.91
2018-12-18T11:12:57.381Z,24.04
2018-12-18T11:13:57.393Z,23.92
2018-12-18T11:14:57.424Z,23.99
2018-12-18T11:15:57.431Z,24.07
2018-12-18T11:16:57.547Z,24.16
2018-12-18T11:17:57.461Z,24.25
2018-12-18T11:18:57.478Z,24.25
2018-12-18T11:19:57.519Z,24.31
2018-12-18T11:20:57.523Z,24.48
2018-12-18T11:21:57.631Z,24.48
2018-12-18T11:22:57.570Z,24.50
2018-12-18T11:23:57.579Z,24.55
2018-12-18T11:24:57.585Z,24.61
2018-12-18T11:25:57.623Z,24.78
2018-12-18T11:26:57.728Z,24.96
2018-12-18T11:27:57.650Z,25.07
2018-12-18T11:28:57.660Z,25.18
2018-12-18T11:29:57.686Z,25.12
2018-12-18T11:30:57.695Z,25.34
2018-12-18T11:31:57.804Z,25.34
2018-12-18T11:32:57.857Z,25.41
2018-12-18T11:33:57.741Z,25.43
2018-12-18T11:34:57.773Z,25.48
2018-12-18T11:35:57.808Z,25.44
2018-12-18T11:36:57.935Z,25.51
2018-12-18T11:37:57.841Z,25.51
2018-12-18T11:38:57.840Z,25.48
2018-12-18T11:39:57.847Z,25.66
2018-12-18T11:40:57.883Z,25.67
2018-12-18T11:41:58.046Z,25.68
2018-12-18T11:42:57.959Z,25.70
2018-12-18T11:43:57.952Z,25.83
2018-12-18T11:44:57.949Z,25.91
2018-12-18T11:45:57.977Z,25.91
2018-12-18T11:46:58.130Z,26.06
2018-12-18T11:47:58.003Z,26.03
2018-12-18T11:48:58.015Z,25.93
2018-12-18T11:49:58.070Z,25.93
2018-12-18T11:50:58.091Z,25.95
2018-12-18T11:51:58.177Z,25.81
2018-12-18T11:52:58.096Z,25.81
2018-12-18T11:53:58.125Z,25.73
2018-12-18T11:54:58.133Z,25.66
2018-12-18T11:55:58.145Z,25.46
2018-12-18T11:56:58.317Z,25.40
2018-12-18T11:57:58.205Z,25.54
2018-12-18T11:58:58.336Z,25.62
2018-12-18T11:59:58.248Z,25.74
2018-12-18T12:00:58.257Z,25.89
2018-12-18T12:01:58.357Z,26.08
2018-12-18T12:02:58.406Z,26.39
2018-12-18T12:03:58.300Z,26.37
2018-12-18T12:04:58.444Z,26.59
2018-12-18T12:05:58.342Z,26.59
2018-12-18T12:06:58.494Z,26.67
2018-12-18T12:07:58.390Z,26.89
2018-12-18T12:08:58.398Z,27.08
2018-12-18T12:09:58.431Z,27.41
2018-12-18T12:10:58.460Z,27.68
2018-12-18T12:11:58.555Z,27.97
2018-12-18T12:12:58.484Z,28.20
2018-12-18T12:13:58.504Z,28.56
2018-12-18T12:14:58.511Z,28.89
2018-12-18T12:15:58.552Z,29.12
2018-12-18T12:16:58.780Z,29.35
2018-12-18T12:17:58.582Z,29.46
2018-12-18T12:18:58.598Z,29.73
2018-12-18T12:19:58.605Z,29.76
2018-12-18T12:20:58.655Z,29.95
2018-12-18T12:21:58.747Z,30.39
2018-12-18T12:22:58.687Z,30.88
2018-12-18T12:23:58.709Z,31.45
2018-12-18T12:24:58.719Z,31.95
2018-12-18T12:25:58.861Z,32.07
2018-12-18T12:26:58.838Z,32.11
2018-12-18T12:27:58.824Z,32.27
2018-12-18T12:28:58.826Z,32.51
2018-12-18T12:29:58.837Z,32.83
2018-12-18T12:30:58.890Z,33.17
2018-12-18T12:31:58.861Z,33.61
2018-12-18T12:32:58.902Z,33.97
2018-12-18T12:33:58.914Z,34.38
2018-12-18T12:34:58.932Z,34.73
2018-12-18T12:35:59.059Z,35.08
2018-12-18T12:36:58.984Z,35.26
2018-12-18T12:37:59.134Z,35.57
2018-12-18T12:38:59.031Z,35.82
2018-12-18T12:39:59.072Z,36.06
2018-12-18T12:40:59.252Z,36.29
2018-12-18T12:41:59.156Z,36.72
2018-12-18T12:42:59.152Z,37.10
2018-12-18T12:43:59.147Z,37.58
2018-12-18T12:44:59.195Z,38.01
2018-12-18T12:45:59.314Z,38.62
2018-12-18T12:46:59.232Z,39.00
2018-12-18T12:47:59.262Z,39.46
2018-12-18T12:48:59.295Z,39.68
2018-12-18T12:49:59.307Z,39.70
2018-12-18T12:50:59.464Z,39.83
2018-12-18T12:51:59.387Z,39.88
2018-12-18T12:52:59.406Z,39.23
2018-12-18T12:53:59.544Z,38.73